Time;durP1;ratioP1;P1;durP2;ratioP2;P2;SDS_P1;SDS_P2;PMS_P1;PMS_P2;Temp;Humidity;BMP_temperature;BMP_pressure;BME280_temperature;BME280_humidity;BME280_pressure;Samples;Min_cycle;Max_cycle;Signal;HPM_P1;HPM_P2
2024/04/01 00:02:36;;;;;;;19.92;13.57;;;;;;;8.02;100.00;99598.75;10088034;28;20074;-71
2024/04/01 00:07:31;;;;;;;18.80;13.50;;;;;;;8.07;100.00;99589.59;10089018;28;20049;-71
2024/04/01 00:12:27;;;;;;;17.02;12.82;;;;;;;8.07;100.00;99579.50;10074427;28;20054;-71
2024/04/01 00:17:22;;;;;;;21.92;13.80;;;;;;;7.96;100.00;99594.59;10067686;28;20630;-71
2024/04/01 00:22:18;;;;;;;19.20;14.18;;;;;;;7.71;100.00;99599.84;10086811;28;20039;-71
2024/04/01 00:27:13;;;;;;;20.15;14.35;;;;;;;7.64;100.00;99593.31;10064889;28;20126;-71
2024/04/01 00:32:09;;;;;;;20.20;14.63;;;;;;;7.65;100.00;99586.75;10071157;28;20050;-71
2024/04/01 00:37:04;;;;;;;18.20;14.18;;;;;;;7.62;100.00;99618.13;10091072;28;20861;-71
2024/04/01 00:42:00;;;;;;;21.60;15.15;;;;;;;7.77;100.00;99699.22;10097425;28;20042;-71
2024/04/01 00:46:56;;;;;;;21.80;14.15;;;;;;;7.98;100.00;99679.44;10091908;28;20051;-72
2024/04/01 00:51:53;;;;;;;20.42;15.55;;;;;;;7.84;100.00;99657.09;10112949;28;20043;-71
2024/04/01 00:56:49;;;;;;;17.88;13.98;;;;;;;7.88;100.00;99637.06;10095135;28;20479;-69
2024/04/01 01:01:47;;;;;;;20.55;14.27;;;;;;;7.82;100.00;99622.06;10075539;28;20077;-71
2024/04/01 01:06:42;;;;;;;22.58;13.80;;;;;;;7.71;100.00;99637.94;10075444;28;20043;-71
2024/04/01 01:11:41;;;;;;;19.42;14.15;;;;;;;7.60;100.00;99604.03;10076619;28;20043;-71
2024/04/01 01:16:37;;;;;;;16.95;14.00;;;;;;;7.55;100.00;99620.53;10074450;28;20051;-71
2024/04/01 01:21:32;;;;;;;20.17;14.80;;;;;;;7.49;100.00;99619.09;10079427;28;20043;-71
2024/04/01 01:26:28;;;;;;;17.58;14.55;;;;;;;7.38;100.00;99635.78;10078476;28;20055;-71
2024/04/01 01:31:23;;;;;;;22.98;16.40;;;;;;;7.31;100.00;99624.59;10089131;28;20043;-71
2024/04/01 01:36:19;;;;;;;20.73;14.50;;;;;;;7.32;100.00;99620.72;10089903;28;20059;-71
2024/04/01 01:41:15;;;;;;;19.30;15.23;;;;;;;7.23;100.00;99603.63;10073278;28;20067;-71
2024/04/01 01:46:10;;;;;;;20.63;15.95;;;;;;;7.23;100.00;99590.03;10090861;28;20047;-71
2024/04/01 01:51:06;;;;;;;21.17;15.50;;;;;;;7.20;100.00;99579.03;10077433;28;20126;-71
2024/04/01 01:56:02;;;;;;;23.73;15.57;;;;;;;7.19;100.00;99589.09;10088963;28;20054;-71
2024/04/01 02:00:57;;;;;;;22.60;16.70;;;;;;;7.13;100.00;99580.31;10080726;28;20043;-71
2024/04/01 02:05:53;;;;;;;23.70;16.13;;;;;;;7.09;100.00;99559.53;10078887;28;20138;-71
2024/04/01 02:10:56;;;;;;;22.45;17.40;;;;;;;7.18;100.00;99544.00;10073860;28;20043;-71
2024/04/01 02:15:51;;;;;;;31.08;18.25;;;;;;;7.17;100.00;99536.94;10089132;28;20078;-70
2024/04/01 02:20:51;;;;;;;29.45;16.88;;;;;;;7.22;100.00;99517.78;10093614;28;20413;-71
2024/04/01 02:25:46;;;;;;;24.40;17.27;;;;;;;7.19;100.00;99512.97;10074792;28;20050;-71
2024/04/01 02:30:42;;;;;;;28.83;18.67;;;;;;;7.17;100.00;99520.66;10084157;28;20126;-70
2024/04/01 02:35:40;;;;;;;27.33;17.15;;;;;;;7.18;100.00;99524.97;10087853;28;20043;-71
2024/04/01 02:40:36;;;;;;;25.55;17.45;;;;;;;7.12;100.00;99531.69;10072733;28;20520;-71
2024/04/01 02:45:32;;;;;;;25.17;18.05;;;;;;;7.04;100.00;99536.03;10071218;28;20046;-71
2024/04/01 02:50:27;;;;;;;23.70;16.88;;;;;;;6.99;100.00;99540.84;10087777;28;20073;-70
2024/04/01 02:55:24;;;;;;;28.58;19.20;;;;;;;6.89;100.00;99536.53;10093700;28;20051;-71
2024/04/01 03:00:20;;;;;;;27.15;18.17;;;;;;;6.91;100.00;99535.09;10093822;28;20143;-71
2024/04/01 03:05:17;;;;;;;26.38;17.40;;;;;;;6.92;100.00;99538.63;10079528;28;20055;-71
2024/04/01 03:10:13;;;;;;;25.23;18.70;;;;;;;6.88;100.00;99534.94;10078055;28;20051;-72
2024/04/01 03:15:10;;;;;;;26.75;17.95;;;;;;;6.91;100.00;99529.66;10085760;28;20058;-71
2024/04/01 03:20:08;;;;;;;31.15;18.30;;;;;;;6.91;100.00;99509.84;10089132;28;20078;-71
2024/04/01 03:25:04;;;;;;;28.00;18.85;;;;;;;6.97;100.00;99507.75;10095854;28;20050;-70
2024/04/01 03:29:59;;;;;;;29.25;19.08;;;;;;;6.91;100.00;99491.59;10071609;28;20043;-71
2024/04/01 03:34:55;;;;;;;29.40;19.65;;;;;;;6.90;100.00;99495.47;10070054;28;20058;-71
2024/04/01 03:39:51;;;;;;;27.77;18.58;;;;;;;6.90;100.00;99484.59;10037255;29;20086;-71
2024/04/01 03:44:49;;;;;;;29.33;19.92;;;;;;;6.78;100.00;99476.31;10067212;28;20047;-71
2024/04/01 03:49:46;;;;;;;25.42;19.20;;;;;;;6.78;100.00;99470.88;10068945;28;20044;-71
2024/04/01 03:54:41;;;;;;;31.38;20.63;;;;;;;6.72;100.00;99461.28;10075950;28;20491;-71
2024/04/01 03:59:38;;;;;;;29.65;19.33;;;;;;;6.63;100.00;99464.00;10081578;28;20043;-72
2024/04/01 04:04:34;;;;;;;27.35;19.92;;;;;;;6.66;100.00;99457.13;10085674;28;20066;-71
2024/04/01 04:09:29;;;;;;;30.52;21.45;;;;;;;6.60;100.00;99448.38;10069700;28;20133;-72
2024/04/01 04:14:25;;;;;;;29.25;20.23;;;;;;;6.58;100.00;99445.19;10054024;28;20062;-71
2024/04/01 04:19:21;;;;;;;26.98;19.45;;;;;;;6.54;100.00;99438.78;10036564;29;20080;-71
2024/04/01 04:24:17;;;;;;;31.25;19.77;;;;;;;6.50;100.00;99438.66;10042970;29;20114;-71
2024/04/01 04:29:12;;;;;;;34.97;21.08;;;;;;;6.50;100.00;99444.06;10036058;29;20050;-71
2024/04/01 04:34:09;;;;;;;30.90;20.98;;;;;;;6.44;100.00;99444.56;10087111;28;20534;-71
2024/04/01 04:39:19;;;;;;;31.92;20.38;;;;;;;6.49;100.00;99453.31;10092401;28;20085;-71
2024/04/01 04:44:14;;;;;;;30.83;21.20;;;;;;;6.40;100.00;99438.16;10073872;28;20051;-71
2024/04/01 04:49:10;;;;;;;35.67;20.05;;;;;;;6.42;100.00;99439.44;10095654;28;20051;-71
2024/04/01 04:54:06;;;;;;;34.83;21.02;;;;;;;6.49;100.00;99431.59;10068852;28;20082;-71
2024/04/01 04:59:03;;;;;;;35.42;21.38;;;;;;;6.49;100.00;99431.59;10070415;28;20066;-71
2024/04/01 05:03:59;;;;;;;34.10;21.98;;;;;;;6.47;100.00;99425.69;10091150;28;20523;-71
2024/04/01 05:08:56;;;;;;;36.15;22.17;;;;;;;6.50;100.00;99433.22;10076738;28;20047;-71
2024/04/01 05:13:51;;;;;;;32.55;21.58;;;;;;;6.51;100.00;99423.16;10075763;28;20516;-71
2024/04/01 05:18:47;;;;;;;30.80;21.92;;;;;;;6.64;100.00;99405.09;10089473;28;20040;-71
2024/04/01 05:23:43;;;;;;;33.75;21.83;;;;;;;6.68;100.00;99416.88;10078102;28;20146;-71
2024/04/01 05:28:38;;;;;;;34.35;22.55;;;;;;;6.68;100.00;99433.16;10093018;28;20055;-71
2024/04/01 05:33:34;;;;;;;35.88;23.58;;;;;;;6.63;100.00;99419.78;10075030;28;20043;-71
2024/04/01 05:38:29;;;;;;;34.38;22.58;;;;;;;6.73;100.00;99416.72;10074361;28;20043;-71
2024/04/01 05:43:25;;;;;;;31.25;22.02;;;;;;;6.73;100.00;99414.81;10090049;28;20039;-70
2024/04/01 05:48:20;;;;;;;34.20;23.02;;;;;;;6.84;100.00;99426.09;10074812;28;20423;-71
2024/04/01 05:53:16;;;;;;;34.55;22.67;;;;;;;6.90;100.00;99430.25;10074613;28;20419;-70
2024/04/01 05:58:12;;;;;;;31.98;22.75;;;;;;;7.07;100.00;99423.16;10076052;28;20051;-70
2024/04/01 06:03:08;;;;;;;34.15;21.92;;;;;;;7.11;100.00;99424.91;10079656;28;20042;-71
2024/04/01 06:08:03;;;;;;;35.95;22.85;;;;;;;7.20;100.00;99433.03;10079595;28;20132;-71
2024/04/01 06:12:59;;;;;;;31.83;23.00;;;;;;;7.16;100.00;99427.44;10092929;28;20035;-70
2024/04/01 06:17:55;;;;;;;35.10;24.90;;;;;;;7.14;100.00;99423.44;10082496;28;20137;-70
2024/04/01 06:22:50;;;;;;;33.20;22.55;;;;;;;7.12;100.00;99426.47;10074058;28;20110;-71
2024/04/01 06:27:46;;;;;;;35.03;23.85;;;;;;;7.14;100.00;99421.50;10077345;28;20047;-71
2024/04/01 06:32:41;;;;;;;30.80;23.33;;;;;;;7.29;100.00;99417.47;10102705;28;20047;-71
2024/04/01 06:37:37;;;;;;;32.90;23.00;;;;;;;7.36;100.00;99409.59;10071836;28;20077;-71
2024/04/01 06:42:33;;;;;;;36.60;23.65;;;;;;;7.47;100.00;99403.75;10069517;28;20081;-71
2024/04/01 06:47:28;;;;;;;38.65;24.23;;;;;;;7.41;100.00;99416.75;10073137;28;20042;-70
2024/04/01 06:52:24;;;;;;;33.10;24.00;;;;;;;7.45;100.00;99422.31;10071319;28;20047;-71
2024/04/01 06:57:19;;;;;;;36.10;25.00;;;;;;;7.54;100.00;99417.63;10078767;28;20093;-71
2024/04/01 07:02:15;;;;;;;33.38;22.75;;;;;;;7.57;100.00;99425.16;10085598;28;20058;-71
2024/04/01 07:07:11;;;;;;;32.65;22.15;;;;;;;7.68;100.00;99431.81;10072460;28;20122;-71
2024/04/01 07:12:07;;;;;;;35.15;24.45;;;;;;;7.58;100.00;99437.63;10037020;28;20048;-70
2024/04/01 07:17:02;;;;;;;34.47;23.77;;;;;;;7.62;100.00;99444.00;10068904;28;20574;-70
2024/04/01 07:21:58;;;;;;;38.03;26.20;;;;;;;7.60;100.00;99446.25;10087909;28;20507;-71
2024/04/01 07:26:53;;;;;;;36.67;24.23;;;;;;;7.66;100.00;99450.41;10086576;28;20054;-71
2024/04/01 07:31:49;;;;;;;39.72;27.17;;;;;;;7.64;100.00;99451.84;10076593;28;20046;-71
2024/04/01 07:36:45;;;;;;;35.55;24.25;;;;;;;7.65;100.00;99432.47;10088094;28;20408;-71
2024/04/01 07:41:40;;;;;;;43.17;26.80;;;;;;;7.74;100.00;99413.38;10073309;28;20051;-71
2024/04/01 07:46:36;;;;;;;38.20;25.25;;;;;;;7.75;100.00;99421.22;10071811;28;20126;-71
2024/04/01 07:51:32;;;;;;;33.08;23.05;;;;;;;7.68;100.00;99414.69;10078563;28;20050;-71
2024/04/01 07:56:28;;;;;;;37.67;26.10;;;;;;;7.71;100.00;99393.06;10082754;28;20057;-71
2024/04/01 08:01:24;;;;;;;41.50;24.10;;;;;;;7.87;100.00;99417.75;10097982;28;20503;-71
2024/04/01 08:06:19;;;;;;;37.72;24.75;;;;;;;7.88;100.00;99407.66;10078017;28;20040;-70
2024/04/01 08:11:15;;;;;;;46.50;26.52;;;;;;;8.00;100.00;99399.56;10095764;28;20046;-71
2024/04/01 08:16:10;;;;;;;41.65;25.50;;;;;;;8.03;100.00;99366.25;10076234;28;20050;-70
2024/04/01 08:21:06;;;;;;;44.83;27.00;;;;;;;8.11;100.00;99367.28;10100863;28;20043;-71
2024/04/01 08:26:02;;;;;;;38.58;26.30;;;;;;;8.18;100.00;99365.63;10080795;28;20126;-72
2024/04/01 08:30:57;;;;;;;38.13;25.00;;;;;;;8.13;100.00;99359.59;10098918;28;20102;-71
2024/04/01 08:35:53;;;;;;;39.33;26.70;;;;;;;8.22;100.00;99342.03;10092576;28;20051;-70
2024/04/01 08:40:53;;;;;;;40.80;26.23;;;;;;;8.21;100.00;99340.47;10075485;28;20142;-71
2024/04/01 08:45:48;;;;;;;47.65;28.05;;;;;;;8.36;100.00;99330.84;10073594;28;20058;-71
2024/04/01 08:50:54;;;;;;;42.17;26.25;;;;;;;8.46;100.00;99318.75;10077417;28;20464;-71
2024/04/01 08:55:50;;;;;;;41.13;27.25;;;;;;;8.43;100.00;99361.09;10088500;28;20065;-71
2024/04/01 09:00:45;;;;;;;38.65;26.23;;;;;;;8.33;100.00;99417.84;10044930;28;20043;-70
2024/04/01 09:05:41;;;;;;;40.78;27.58;;;;;;;8.28;100.00;99442.56;10080574;28;20051;-70
2024/04/01 09:10:37;;;;;;;43.00;25.13;;;;;;;8.30;100.00;99429.44;10090415;28;20047;-71
2024/04/01 09:15:33;;;;;;;49.55;28.70;;;;;;;8.38;100.00;99406.78;10082079;28;20047;-70
2024/04/01 09:20:28;;;;;;;42.42;27.30;;;;;;;8.47;100.00;99407.53;10073831;28;20126;-72
2024/04/01 09:25:24;;;;;;;43.85;27.17;;;;;;;8.58;100.00;99392.31;10057141;28;20407;-70
2024/04/01 09:30:20;;;;;;;43.83;27.52;;;;;;;8.71;100.00;99389.66;10049445;28;20135;-71
2024/04/01 09:35:15;;;;;;;47.40;28.38;;;;;;;8.75;100.00;99387.81;10077336;28;20043;-71
2024/04/01 09:40:11;;;;;;;47.75;27.60;;;;;;;8.84;100.00;99377.63;10073349;28;20129;-71
2024/04/01 09:45:08;;;;;;;46.08;27.02;;;;;;;8.91;100.00;99361.53;10088843;28;20047;-72
2024/04/01 09:50:05;;;;;;;42.83;26.95;;;;;;;9.08;100.00;99335.16;10079577;28;20082;-71
2024/04/01 09:55:06;;;;;;;42.22;27.95;;;;;;;9.19;100.00;99306.28;10093270;28;20051;-71
2024/04/01 10:00:18;;;;;;;41.47;25.63;;;;;;;9.32;100.00;99288.75;10072109;28;20079;-71
2024/04/01 10:05:35;;;;;;;41.20;27.83;;;;;;;9.32;100.00;99277.84;10092793;28;20047;-71
2024/04/01 10:11:15;;;;;;;36.60;25.33;;;;;;;9.32;100.00;99272.41;10111314;28;20042;-71
2024/04/01 10:16:30;;;;;;;38.20;25.65;;;;;;;9.32;100.00;99277.06;10069174;28;20077;-71
2024/04/01 10:21:55;;;;;;;40.15;25.00;;;;;;;9.42;100.00;99271.94;10080228;28;20077;-69
2024/04/01 10:27:37;;;;;;;37.15;25.63;;;;;;;9.54;100.00;99262.09;10093632;28;20050;-71
2024/04/01 10:33:07;;;;;;;45.53;27.85;;;;;;;9.65;100.00;99255.03;10088950;28;20051;-71
2024/04/01 10:38:16;;;;;;;40.72;25.20;;;;;;;9.73;100.00;99259.56;10076941;28;20077;-71
2024/04/01 10:43:42;;;;;;;34.28;23.27;;;;;;;9.80;100.00;99248.81;10067999;28;20071;-71
2024/04/01 10:49:07;;;;;;;44.70;24.80;;;;;;;9.89;100.00;99241.28;10072056;28;20078;-71
2024/04/01 10:54:05;;;;;;;35.05;23.67;;;;;;;10.05;100.00;99240.53;10050843;28;20087;-71
2024/04/01 10:59:25;;;;;;;39.85;23.75;;;;;;;10.15;100.00;99231.81;10084649;28;20534;-71
2024/04/01 11:04:55;;;;;;;37.08;23.05;;;;;;;10.26;100.00;99221.16;10089435;28;20133;-71
2024/04/01 11:10:10;;;;;;;34.22;22.02;;;;;;;10.20;100.00;99212.41;10068514;28;20043;-70
2024/04/01 11:15:09;;;;;;;30.55;20.48;;;;;;;10.21;100.00;99208.56;10077707;28;20051;-71
2024/04/01 11:20:14;;;;;;;33.35;22.98;;;;;;;10.20;100.00;99206.94;10088900;28;20110;-71
2024/04/01 11:25:41;;;;;;;25.30;17.25;;;;;;;10.29;100.00;99202.13;10087758;28;20050;-71
2024/04/01 11:30:37;;;;;;;29.60;20.63;;;;;;;10.31;100.00;99194.38;10065937;28;20729;-71
2024/04/01 11:35:50;;;;;;;28.00;19.83;;;;;;;10.37;100.00;99188.66;10070733;28;20102;-71
2024/04/01 11:40:49;;;;;;;36.03;21.00;;;;;;;10.42;100.00;99185.66;10070748;28;20063;-71
2024/04/01 11:45:47;;;;;;;27.70;18.58;;;;;;;10.56;100.00;99187.91;10073274;28;20082;-71
2024/04/01 11:50:53;;;;;;;28.92;18.95;;;;;;;10.50;100.00;99181.94;10074258;28;20050;-73
2024/04/01 11:55:56;;;;;;;28.38;18.35;;;;;;;10.42;100.00;99169.25;10074776;28;20055;-71
2024/04/01 12:00:51;;;;;;;26.58;18.30;;;;;;;10.53;100.00;99167.56;10076748;28;20063;-71
2024/04/01 12:05:51;;;;;;;28.23;18.23;;;;;;;10.57;100.00;99165.72;10080179;28;20057;-70
2024/04/01 12:10:48;;;;;;;31.92;18.40;;;;;;;10.47;100.00;99161.59;10076516;28;20484;-71
2024/04/01 12:15:44;;;;;;;31.95;19.00;;;;;;;10.51;100.00;99164.41;10088494;28;20075;-71
2024/04/01 12:20:40;;;;;;;28.90;19.15;;;;;;;10.57;100.00;99179.38;10073099;28;20094;-71
2024/04/01 12:25:36;;;;;;;28.27;17.95;;;;;;;10.58;100.00;99189.16;10064544;28;20054;-71
2024/04/01 12:30:38;;;;;;;25.08;17.48;;;;;;;10.61;100.00;99199.41;10047572;28;20099;-71
2024/04/01 12:35:37;;;;;;;;;;;;;;;10.60;100.00;99191.53;10071599;28;20067;-71
2024/04/01 12:40:46;;;;;;;34.42;19.13;;;;;;;10.62;100.00;99181.84;10058260;28;19970;-70
2024/04/01 12:45:43;;;;;;;71.78;23.60;;;;;;;10.71;100.00;99182.44;10076916;28;20051;-71
2024/04/01 12:50:42;;;;;;;32.05;19.52;;;;;;;10.84;100.00;99179.59;10098164;28;20099;-71
2024/04/01 12:55:38;;;;;;;31.23;19.70;;;;;;;10.83;100.00;99181.53;10086804;28;20086;-71
2024/04/01 13:00:38;;;;;;;26.30;18.30;;;;;;;10.87;100.00;99195.28;10048126;28;20066;-71
2024/04/01 13:06:05;;;;;;;26.15;19.85;;;;;;;10.81;100.00;99218.56;10075097;28;20500;-71
2024/04/01 13:11:48;;;;;;;29.60;20.15;;;;;;;10.82;100.00;99225.66;10076434;28;20044;-71
2024/04/01 13:16:53;;;;;;;34.10;18.80;;;;;;;10.75;100.00;99237.19;10060427;28;20068;-70
2024/04/01 13:22:20;;;;;;;26.25;18.40;;;;;;;10.66;100.00;99267.44;10056380;28;20087;-72
2024/04/01 13:27:37;;;;;;;34.70;19.15;;;;;;;10.58;100.00;99287.53;10080286;28;20043;-71
2024/04/01 13:32:49;;;;;;;25.65;17.50;;;;;;;10.59;100.00;99293.81;10076034;28;20042;-71
2024/04/01 13:37:58;;;;;;;34.38;18.65;;;;;;;10.57;100.00;99302.38;10073631;28;20047;-71
2024/04/01 13:43:26;;;;;;;26.65;18.98;;;;;;;10.53;100.00;99306.94;10073508;28;20082;-71
2024/04/01 13:48:42;;;;;;;32.63;19.77;;;;;;;10.49;100.00;99314.28;10070541;28;20043;-71
2024/04/01 13:53:42;;;;;;;38.35;20.67;;;;;;;10.42;100.00;99322.25;10073902;28;20531;-71
2024/04/01 13:59:02;;;;;;;33.38;18.42;;;;;;;10.29;100.00;99316.88;10081799;28;20091;-71
2024/04/01 14:04:27;;;;;;;34.00;19.92;;;;;;;10.24;100.00;99317.09;10106168;28;20067;-72
2024/04/01 14:09:52;;;;;;;30.25;20.63;;;;;;;10.23;100.00;99310.03;10086091;28;20040;-70
2024/04/01 14:15:17;;;;;;;29.92;20.83;;;;;;;10.16;100.00;99298.13;10072759;28;20154;-71
2024/04/01 14:20:33;;;;;;;32.03;20.77;;;;;;;10.19;100.00;99292.78;10089470;28;20102;-70
2024/04/01 14:25:29;;;;;;;31.88;21.05;;;;;;;10.15;100.00;99283.69;10074046;28;20074;-71
2024/04/01 14:30:25;;;;;;;34.53;21.33;;;;;;;10.19;100.00;99278.31;10080754;28;20050;-70
2024/04/01 14:35:20;;;;;;;36.42;20.88;;;;;;;10.20;100.00;99271.72;10072430;28;20058;-70
2024/04/01 14:40:16;;;;;;;34.13;21.48;;;;;;;10.18;100.00;99266.59;10071104;28;20526;-71
2024/04/01 14:45:11;;;;;;;31.33;20.42;;;;;;;10.19;100.00;99270.94;10072549;28;20196;-71
2024/04/01 14:50:07;;;;;;;26.70;19.58;;;;;;;10.10;100.00;99276.53;10095130;28;20058;-70
2024/04/01 14:55:04;;;;;;;30.88;20.15;;;;;;;10.06;100.00;99277.59;10070918;28;20106;-71
2024/04/01 15:00:01;;;;;;;32.08;20.73;;;;;;;10.07;100.00;99274.53;10089945;28;20507;-70
2024/04/01 15:04:57;;;;;;;33.65;22.17;;;;;;;10.03;100.00;99278.31;10063063;28;20121;-71
2024/04/01 15:09:53;;;;;;;36.83;22.50;;;;;;;10.00;100.00;99282.53;10047482;29;20043;-71
2024/04/01 15:14:50;;;;;;;29.50;20.65;;;;;;;9.90;100.00;99286.53;10069361;28;20102;-70
2024/04/01 15:19:46;;;;;;;17.67;11.65;;;;;;;9.67;100.00;99277.31;10088352;28;20087;-70
2024/04/01 15:24:41;;;;;;;15.25;9.60;;;;;;;9.51;100.00;99284.63;10096574;28;20098;-70
2024/04/01 15:29:38;;;;;;;12.57;8.25;;;;;;;9.40;100.00;99279.66;10088334;28;20039;-70
2024/04/01 15:34:40;;;;;;;11.23;6.78;;;;;;;9.26;100.00;99271.06;10089067;28;20070;-69
2024/04/01 15:39:36;;;;;;;10.90;6.28;;;;;;;9.21;100.00;99282.19;10108714;28;20070;-69
2024/04/01 15:44:32;;;;;;;12.07;6.25;;;;;;;9.20;100.00;99283.34;10048676;28;20040;-70
2024/04/01 15:49:29;;;;;;;11.35;7.50;;;;;;;9.10;100.00;99281.06;10102506;28;20054;-70
2024/04/01 15:54:27;;;;;;;10.48;6.57;;;;;;;9.09;100.00;99279.50;10072451;28;20062;-69
2024/04/01 15:59:24;;;;;;;11.15;6.47;;;;;;;9.06;100.00;99292.66;10092132;28;20074;-70
2024/04/01 16:04:20;;;;;;;13.75;8.32;;;;;;;9.06;100.00;99289.94;10083035;28;20043;-70
2024/04/01 16:09:16;;;;;;;13.00;7.63;;;;;;;9.10;100.00;99291.97;10088609;28;20039;-69
2024/04/01 16:14:16;;;;;;;12.27;7.05;;;;;;;9.02;100.00;99290.97;10093311;28;20074;-70
2024/04/01 16:19:26;;;;;;;10.52;6.65;;;;;;;9.09;100.00;99291.19;10096475;28;20073;-70
2024/04/01 16:24:27;;;;;;;11.88;7.50;;;;;;;9.07;100.00;99285.28;10087646;28;20082;-70
2024/04/01 16:29:29;;;;;;;11.25;7.07;;;;;;;9.01;100.00;99287.44;10077773;28;20514;-70
2024/04/01 16:34:26;;;;;;;9.85;5.78;;;;;;;9.04;100.00;99289.47;10092589;28;20039;-70
2024/04/01 16:39:26;;;;;;;9.02;5.63;;;;;;;9.01;100.00;99289.38;10090851;28;20519;-70
2024/04/01 16:44:22;;;;;;;8.25;5.80;;;;;;;8.99;100.00;99291.66;10086112;28;20067;-71
2024/04/01 16:49:19;;;;;;;8.65;5.60;;;;;;;9.00;100.00;99296.75;10081076;28;20515;-70
2024/04/01 16:54:15;;;;;;;7.45;5.43;;;;;;;9.00;100.00;99291.28;10056186;28;20079;-68
2024/04/01 16:59:17;;;;;;;7.07;4.70;;;;;;;8.94;100.00;99295.41;10088903;28;20043;-69
2024/04/01 17:04:13;;;;;;;;;;;;;;;8.98;100.00;99293.59;10098141;28;20070;-69
2024/04/01 17:09:09;;;;;;;6.07;4.20;;;;;;;8.95;100.00;99291.53;10079626;28;20325;-69
2024/04/01 17:14:06;;;;;;;6.30;4.22;;;;;;;8.92;100.00;99297.69;10079336;28;20082;-69
2024/04/01 17:19:05;;;;;;;7.72;4.50;;;;;;;8.95;100.00;99302.44;10080918;28;20078;-68
2024/04/01 17:24:01;;;;;;;8.38;5.00;;;;;;;8.91;100.00;99301.56;10092040;28;20079;-68
2024/04/01 17:28:58;;;;;;;7.18;4.43;;;;;;;8.88;100.00;99307.66;10065022;28;20047;-69
2024/04/01 17:33:55;;;;;;;9.60;4.40;;;;;;;8.84;100.00;99313.03;10094566;28;20074;-69
2024/04/01 17:38:51;;;;;;;6.47;4.25;;;;;;;8.85;100.00;99313.81;10053263;28;20079;-69
2024/04/01 17:43:47;;;;;;;8.75;4.57;;;;;;;8.78;100.00;99306.19;10086095;28;20134;-69
2024/04/01 17:48:43;;;;;;;8.52;4.85;;;;;;;8.81;100.00;99319.13;10054231;28;20047;-69
2024/04/01 17:53:38;;;;;;;8.55;5.00;;;;;;;8.80;100.00;99333.13;10061147;28;20079;-69
2024/04/01 17:58:35;;;;;;;8.75;4.68;;;;;;;8.77;100.00;99328.31;10069812;28;20098;-70
2024/04/01 18:03:31;;;;;;;6.93;4.97;;;;;;;8.75;100.00;99333.31;10074033;28;20079;-69
2024/04/01 18:08:27;;;;;;;8.98;5.22;;;;;;;8.71;100.00;99338.66;10076323;28;20070;-70
2024/04/01 18:13:23;;;;;;;9.48;5.60;;;;;;;8.74;100.00;99342.63;10072317;28;20058;-70
2024/04/01 18:18:20;;;;;;;9.65;7.22;;;;;;;8.71;100.00;99356.94;10081332;28;20476;-69
2024/04/01 18:23:16;;;;;;;15.05;8.25;;;;;;;8.68;100.00;99373.94;10072343;28;20133;-70
2024/04/01 18:28:12;;;;;;;12.85;8.65;;;;;;;8.66;100.00;99360.69;10068926;28;20047;-69
2024/04/01 18:33:15;;;;;;;11.70;8.23;;;;;;;8.65;100.00;99386.31;10065909;28;20103;-69
2024/04/01 18:38:12;;;;;;;13.73;9.00;;;;;;;8.50;100.00;99398.66;10043158;28;20852;-69
2024/04/01 18:43:07;;;;;;;13.52;9.60;;;;;;;8.41;100.00;99403.41;10042828;28;20121;-69
2024/04/01 18:48:03;;;;;;;18.50;10.27;;;;;;;8.33;100.00;99412.41;10071225;28;20163;-69
2024/04/01 18:53:00;;;;;;;15.55;10.40;;;;;;;8.30;100.00;99419.31;10076269;28;20051;-69
2024/04/01 18:57:55;;;;;;;18.90;10.90;;;;;;;8.28;100.00;99431.69;10095316;28;20079;-69
2024/04/01 19:02:51;;;;;;;16.38;10.40;;;;;;;8.23;100.00;99440.84;10047153;28;20403;-69
2024/04/01 19:07:47;;;;;;;18.58;10.30;;;;;;;8.18;100.00;99449.22;10051878;28;20043;-69
2024/04/01 19:12:43;;;;;;;15.05;9.63;;;;;;;8.13;100.00;99441.28;10085125;28;20055;-69
2024/04/01 19:17:38;;;;;;;16.50;9.77;;;;;;;8.08;100.00;99455.88;10080370;28;20424;-69
2024/04/01 19:22:34;;;;;;;17.15;9.63;;;;;;;8.02;100.00;99468.06;10085455;28;20039;-69
2024/04/01 19:27:29;;;;;;;16.20;8.30;;;;;;;8.04;100.00;99475.94;10093633;28;20050;-69
2024/04/01 19:32:26;;;;;;;14.40;9.68;;;;;;;8.01;100.00;99480.91;10049820;28;20373;-70
2024/04/01 19:37:22;;;;;;;14.23;9.13;;;;;;;7.99;100.00;99474.97;10052959;28;20071;-69
2024/04/01 19:42:18;;;;;;;21.00;9.50;;;;;;;8.01;100.00;99471.94;10082931;28;20047;-69
2024/04/01 19:47:13;;;;;;;15.18;9.55;;;;;;;8.01;100.00;99480.09;10073447;28;20051;-70
2024/04/01 19:52:18;;;;;;;19.13;9.60;;;;;;;8.04;100.00;99486.81;10058234;28;20047;-69
2024/04/01 19:57:14;;;;;;;20.73;10.10;;;;;;;8.04;100.00;99489.53;10052869;28;20090;-69
2024/04/01 20:02:24;;;;;;;18.98;11.23;;;;;;;8.08;100.00;99477.66;10050843;28;20051;-71
2024/04/01 20:07:19;;;;;;;17.48;11.90;;;;;;;8.09;100.00;99476.50;10062470;28;20103;-71
2024/04/01 20:12:15;;;;;;;20.63;12.45;;;;;;;8.13;100.00;99484.84;10052441;28;20460;-71
2024/04/01 20:17:12;;;;;;;26.58;14.23;;;;;;;8.12;100.00;99494.94;10048590;28;20039;-71
2024/04/01 20:22:12;;;;;;;18.65;12.18;;;;;;;8.14;100.00;99491.84;10070776;28;20617;-71
2024/04/01 20:27:08;;;;;;;22.85;12.27;;;;;;;8.13;100.00;99493.78;10085478;28;20055;-71
2024/04/01 20:32:07;;;;;;;23.45;13.20;;;;;;;8.18;100.00;99490.88;10085239;28;20423;-70
2024/04/01 20:37:05;;;;;;;16.80;11.60;;;;;;;8.21;100.00;99492.13;10071764;28;20039;-70
2024/04/01 20:42:01;;;;;;;18.88;10.43;;;;;;;8.18;100.00;99493.59;10076109;28;20507;-71
2024/04/01 20:46:58;;;;;;;20.15;9.63;;;;;;;8.18;100.00;99499.03;10063684;28;20048;-71
2024/04/01 20:51:54;;;;;;;25.92;8.73;;;;;;;8.18;100.00;99507.19;10080343;28;20075;-71
2024/04/01 20:56:56;;;;;;;18.13;8.60;;;;;;;8.22;100.00;99516.31;10074580;28;20095;-71
2024/04/01 21:02:02;;;;;;;20.65;8.23;;;;;;;8.22;100.00;99527.19;10068489;28;20560;-71
2024/04/01 21:06:58;;;;;;;14.75;7.35;;;;;;;8.20;100.00;99529.44;10077709;28;20078;-72
2024/04/01 21:11:53;;;;;;;12.63;7.28;;;;;;;8.20;100.00;99529.44;10080843;28;20054;-72
2024/04/01 21:16:49;;;;;;;18.33;7.05;;;;;;;8.14;100.00;99538.94;10097538;28;20584;-71
2024/04/01 21:21:45;;;;;;;13.48;6.50;;;;;;;8.16;100.00;99555.75;10082540;28;20526;-71
2024/04/01 21:26:40;;;;;;;15.80;7.30;;;;;;;8.12;100.00;99548.56;10076083;28;20055;-71
2024/04/01 21:31:36;;;;;;;12.20;7.70;;;;;;;8.09;100.00;99550.03;10070160;28;20103;-72
2024/04/01 21:36:31;;;;;;;17.08;7.47;;;;;;;8.10;100.00;99546.19;10110033;28;20035;-70
2024/04/01 21:41:27;;;;;;;15.82;7.45;;;;;;;8.08;100.00;99543.00;10079215;28;20118;-70
2024/04/01 21:46:23;;;;;;;18.65;7.97;;;;;;;8.08;100.00;99553.88;10072483;28;20053;-70
2024/04/01 21:51:19;;;;;;;16.02;7.60;;;;;;;8.08;100.00;99563.97;10073081;28;20539;-70
2024/04/01 21:56:15;;;;;;;14.23;7.93;;;;;;;8.01;100.00;99569.94;10088093;28;20126;-70
2024/04/01 22:01:10;;;;;;;19.15;7.53;;;;;;;7.97;100.00;99563.53;10084966;28;20046;-71
2024/04/01 22:06:06;;;;;;;21.30;8.05;;;;;;;8.00;100.00;99555.50;10064954;28;20052;-72
2024/04/01 22:11:01;;;;;;;18.55;9.00;;;;;;;7.96;100.00;99551.88;10062016;28;20061;-71
2024/04/01 22:15:57;;;;;;;20.02;9.18;;;;;;;8.00;100.00;99552.78;10074187;28;20102;-71
2024/04/01 22:20:53;;;;;;;21.92;8.77;;;;;;;8.03;100.00;99556.78;10084830;28;20071;-71
2024/04/01 22:25:48;;;;;;;17.75;7.75;;;;;;;8.02;100.00;99555.97;10055883;28;20051;-71
2024/04/01 22:30:44;;;;;;;19.10;7.88;;;;;;;8.03;100.00;99567.69;10091550;28;20063;-71
2024/04/01 22:35:39;;;;;;;22.52;8.90;;;;;;;8.01;100.00;99569.94;10092709;28;20134;-71
2024/04/01 22:40:35;;;;;;;18.40;9.05;;;;;;;8.04;100.00;99585.59;10091734;28;20125;-71
2024/04/01 22:45:30;;;;;;;22.17;9.23;;;;;;;8.04;100.00;99580.16;10068702;28;20044;-71